createdAt,value
2017-08-24T00:01:05.504Z,7.20
2017-08-24T00:03:39.819Z,6.43
2017-08-24T00:06:13.739Z,6.73
2017-08-24T00:08:47.911Z,7.57
2017-08-24T00:11:22.116Z,6.83
2017-08-24T00:13:56.993Z,6.30
2017-08-24T00:16:30.715Z,6.47
2017-08-24T00:19:05.849Z,7.17
2017-08-24T00:21:40.276Z,7.00
2017-08-24T00:24:14.401Z,7.30
2017-08-24T00:26:48.925Z,7.67
2017-08-24T00:29:23.217Z,7.10
2017-08-24T00:31:59.462Z,7.23
2017-08-24T00:34:33.821Z,7.30
2017-08-24T00:37:08.064Z,7.33
2017-08-24T00:39:41.853Z,7.70
2017-08-24T00:42:17.159Z,7.40
2017-08-24T00:44:51.373Z,6.67
2017-08-24T00:47:26.779Z,6.73
2017-08-24T00:50:01.088Z,6.63
2017-08-24T00:52:35.982Z,6.90
2017-08-24T00:55:10.227Z,7.60
2017-08-24T00:57:44.750Z,7.00
2017-08-24T01:00:19.536Z,7.07
2017-08-24T01:02:53.584Z,6.33
2017-08-24T01:05:28.005Z,7.07
2017-08-24T01:08:02.312Z,7.23
2017-08-24T01:10:36.683Z,8.43
2017-08-24T01:13:10.467Z,8.47
2017-08-24T01:15:44.771Z,8.40
2017-08-24T01:18:18.904Z,9.13
2017-08-24T01:20:53.099Z,8.57
2017-08-24T01:23:27.065Z,7.13
2017-08-24T01:26:01.224Z,8.80
2017-08-24T01:28:35.091Z,9.37
2017-08-24T01:31:08.722Z,8.70
2017-08-24T01:33:42.884Z,9.37
2017-08-24T01:36:16.860Z,9.30
2017-08-24T01:38:50.725Z,8.60
2017-08-24T01:41:25.007Z,7.67
2017-08-24T01:43:59.084Z,7.93
2017-08-24T01:46:33.839Z,8.13
2017-08-24T01:49:08.890Z,8.47
2017-08-24T01:51:42.695Z,9.10
2017-08-24T01:54:17.250Z,9.93
2017-08-24T01:56:50.976Z,9.33
2017-08-24T01:59:24.999Z,8.63
2017-08-24T02:01:58.958Z,9.37
2017-08-24T02:04:32.867Z,9.23
2017-08-24T02:07:06.979Z,8.60
2017-08-24T02:09:41.224Z,8.27
2017-08-24T02:12:15.222Z,8.20
2017-08-24T02:14:49.493Z,8.47
2017-08-24T02:17:23.672Z,8.33
2017-08-24T02:19:57.736Z,8.77
2017-08-24T02:22:31.307Z,9.13
2017-08-24T02:25:05.111Z,10.07
2017-08-24T02:27:39.190Z,8.60
2017-08-24T02:30:13.642Z,9.30
2017-08-24T02:32:47.926Z,9.67
2017-08-24T02:35:22.351Z,9.50
2017-08-24T02:37:56.875Z,10.53
2017-08-24T02:40:31.367Z,8.70
2017-08-24T02:43:05.357Z,8.53
2017-08-24T02:45:39.193Z,8.97
2017-08-24T02:48:13.383Z,9.23
2017-08-24T02:50:47.876Z,8.53
2017-08-24T02:53:21.556Z,8.47
2017-08-24T02:55:56.240Z,7.20
2017-08-24T02:58:29.988Z,7.57
2017-08-24T03:01:04.560Z,8.50
2017-08-24T03:03:38.384Z,8.43
2017-08-24T03:06:12.659Z,7.70
2017-08-24T03:08:47.936Z,8.97
2017-08-24T03:11:21.824Z,8.00
2017-08-24T03:13:55.930Z,7.90
2017-08-24T03:16:30.035Z,8.03
2017-08-24T03:19:04.894Z,7.50
2017-08-24T03:21:39.209Z,7.30
2017-08-24T03:24:13.465Z,7.60
2017-08-24T03:26:47.638Z,8.20
2017-08-24T03:29:21.726Z,8.67
2017-08-24T03:31:56.171Z,7.67
2017-08-24T03:34:30.572Z,8.50
2017-08-24T03:37:04.596Z,8.70
2017-08-24T03:39:40.227Z,8.57
2017-08-24T03:42:14.012Z,8.90
2017-08-24T03:44:48.162Z,7.50
2017-08-24T03:47:22.404Z,7.90
2017-08-24T03:49:57.427Z,8.47
2017-08-24T03:52:31.011Z,8.30
2017-08-24T03:55:04.684Z,8.10
2017-08-24T03:57:38.388Z,7.93
2017-08-24T04:00:12.603Z,7.20
2017-08-24T04:02:46.755Z,7.93
2017-08-24T04:05:21.063Z,7.80
2017-08-24T04:07:55.972Z,7.30
2017-08-24T04:10:29.484Z,7.53
2017-08-24T04:13:04.384Z,8.00
2017-08-24T04:15:38.015Z,7.80
2017-08-24T04:18:11.515Z,9.00
2017-08-24T04:20:45.456Z,9.00
2017-08-24T04:23:19.544Z,9.80
2017-08-24T04:25:55.091Z,8.90
2017-08-24T04:28:30.450Z,8.37
2017-08-24T04:31:05.028Z,9.70
2017-08-24T04:33:38.763Z,7.77
2017-08-24T04:36:12.603Z,8.37
2017-08-24T04:38:47.400Z,8.20
2017-08-24T04:41:21.264Z,7.63
2017-08-24T04:43:56.193Z,8.20
2017-08-24T04:46:30.287Z,9.57
2017-08-24T04:49:04.114Z,10.80
2017-08-24T04:51:37.981Z,10.63
2017-08-24T04:54:12.348Z,10.67
2017-08-24T04:56:46.328Z,10.27
2017-08-24T04:59:20.373Z,9.60
2017-08-24T05:01:54.168Z,10.90
2017-08-24T05:04:28.091Z,10.30
2017-08-24T05:07:02.252Z,11.70
2017-08-24T05:09:36.269Z,10.17
2017-08-24T05:12:10.657Z,13.27
2017-08-24T05:14:45.074Z,9.87
2017-08-24T05:17:19.155Z,11.40
2017-08-24T05:19:53.715Z,9.80
2017-08-24T05:22:27.222Z,10.40
2017-08-24T05:25:01.632Z,10.30
2017-08-24T05:27:35.414Z,9.60
2017-08-24T05:30:09.013Z,9.20
2017-08-24T05:32:43.712Z,9.67
2017-08-24T05:35:18.194Z,8.63
2017-08-24T05:37:52.103Z,9.33
2017-08-24T05:40:26.141Z,8.50
2017-08-24T05:42:59.702Z,8.70
2017-08-24T05:45:33.876Z,9.03
2017-08-24T05:48:08.480Z,7.67
2017-08-24T05:50:42.663Z,9.27
2017-08-24T05:53:17.188Z,8.83
2017-08-24T05:55:51.162Z,8.80
2017-08-24T05:58:25.478Z,8.37
2017-08-24T06:00:59.964Z,8.10
2017-08-24T06:03:33.601Z,7.83
2017-08-24T06:06:07.621Z,8.43
2017-08-24T06:08:41.762Z,7.70
2017-08-24T06:11:16.124Z,9.20
2017-08-24T06:13:50.424Z,8.67
2017-08-24T06:16:25.442Z,8.93
2017-08-24T06:18:59.071Z,7.90
2017-08-24T06:21:33.212Z,7.70
2017-08-24T06:24:07.278Z,8.30
2017-08-24T06:26:41.403Z,8.53
2017-08-24T06:29:15.517Z,7.43
2017-08-24T06:31:49.257Z,7.30
2017-08-24T06:34:23.890Z,7.50
2017-08-24T06:36:57.590Z,7.10
2017-08-24T06:39:32.074Z,6.20
2017-08-24T06:42:06.188Z,6.77
2017-08-24T06:44:40.287Z,6.77
2017-08-24T06:47:14.374Z,6.40
2017-08-24T06:49:48.527Z,7.00
2017-08-24T06:52:22.512Z,6.73
2017-08-24T06:54:56.567Z,6.57
2017-08-24T06:57:30.984Z,6.40
2017-08-24T07:00:05.084Z,6.30
2017-08-24T07:02:39.002Z,6.93
2017-08-24T07:05:14.516Z,13.00
2017-08-24T07:07:48.841Z,7.43
2017-08-24T07:10:22.822Z,7.37
2017-08-24T07:12:56.841Z,6.37
2017-08-24T07:15:31.230Z,6.70
2017-08-24T07:18:05.430Z,6.70
2017-08-24T07:20:39.731Z,6.70
2017-08-24T07:23:14.089Z,8.00
2017-08-24T07:25:48.074Z,7.40
2017-08-24T07:28:22.429Z,6.03
2017-08-24T07:30:57.157Z,6.87
2017-08-24T07:33:31.526Z,6.30
2017-08-24T07:36:05.248Z,6.40
2017-08-24T07:38:40.613Z,6.33
2017-08-24T07:41:14.622Z,6.00
2017-08-24T07:43:48.372Z,6.30
2017-08-24T07:46:22.523Z,5.90
2017-08-24T07:48:56.883Z,6.50
2017-08-24T07:51:30.684Z,6.03
2017-08-24T07:54:05.154Z,6.60
2017-08-24T07:56:39.051Z,6.10
2017-08-24T07:59:13.215Z,5.80
2017-08-24T08:01:47.616Z,6.03
2017-08-24T08:04:21.689Z,5.63
2017-08-24T08:06:55.151Z,5.53
2017-08-24T08:09:30.211Z,5.50
2017-08-24T08:12:04.375Z,5.30
2017-08-24T08:14:38.395Z,5.80
2017-08-24T08:17:12.676Z,5.57
2017-08-24T08:19:46.478Z,6.30
2017-08-24T08:22:20.578Z,5.30
2017-08-24T08:24:55.254Z,5.63
2017-08-24T08:27:29.584Z,5.67
2017-08-24T08:30:03.304Z,5.53
2017-08-24T08:32:37.264Z,5.20
2017-08-24T08:35:11.898Z,5.30
2017-08-24T08:37:46.022Z,5.60
2017-08-24T08:40:20.559Z,4.80
2017-08-24T08:42:54.521Z,5.87
2017-08-24T08:45:28.490Z,5.37
2017-08-24T08:48:02.054Z,5.83
2017-08-24T08:50:36.021Z,5.30
2017-08-24T08:53:10.181Z,5.30
2017-08-24T08:55:45.512Z,5.77
2017-08-24T08:58:19.551Z,5.70
2017-08-24T09:00:54.240Z,5.47
2017-08-24T09:03:27.755Z,5.57
2017-08-24T09:06:01.922Z,5.63
2017-08-24T09:08:35.419Z,5.60
2017-08-24T09:11:09.120Z,5.30
2017-08-24T09:13:43.472Z,5.63
2017-08-24T09:16:17.387Z,5.50
2017-08-24T09:18:51.387Z,5.20
2017-08-24T09:21:25.443Z,5.67
2017-08-24T09:23:59.716Z,5.80
2017-08-24T09:26:33.840Z,6.10
2017-08-24T09:29:08.638Z,5.77
2017-08-24T09:31:42.322Z,5.70
2017-08-24T09:34:16.046Z,6.00
2017-08-24T09:36:50.020Z,5.90
2017-08-24T09:39:24.390Z,5.80
2017-08-24T09:41:58.524Z,5.73
2017-08-24T09:44:32.508Z,6.07
2017-08-24T09:47:06.850Z,5.73
2017-08-24T09:49:40.862Z,5.90
2017-08-24T09:52:15.579Z,5.57
2017-08-24T09:54:49.636Z,6.10
2017-08-24T09:57:23.798Z,5.53
2017-08-24T09:59:58.139Z,5.47
2017-08-24T10:02:32.349Z,6.10
2017-08-24T10:05:06.730Z,5.77
2017-08-24T10:07:40.383Z,5.50
2017-08-24T10:10:14.499Z,5.93
2017-08-24T10:12:49.534Z,5.50
2017-08-24T10:15:23.034Z,5.80
2017-08-24T10:17:56.827Z,5.50
2017-08-24T10:20:30.917Z,5.50
2017-08-24T10:23:05.184Z,5.93
2017-08-24T10:25:39.942Z,5.30
2017-08-24T10:28:13.995Z,6.20
2017-08-24T10:30:47.520Z,5.70
2017-08-24T10:33:22.015Z,6.00
2017-08-24T10:35:56.285Z,6.60
2017-08-24T10:38:31.065Z,5.17
2017-08-24T10:41:06.378Z,5.60
2017-08-24T10:43:40.052Z,6.13
2017-08-24T10:46:13.927Z,6.30
2017-08-24T10:48:49.192Z,5.40
2017-08-24T10:51:23.139Z,6.17
2017-08-24T10:53:57.651Z,5.93
2017-08-24T10:56:31.562Z,5.90
2017-08-24T10:59:05.418Z,5.30
2017-08-24T11:01:39.528Z,5.40
2017-08-24T11:04:13.870Z,5.73
2017-08-24T11:06:47.930Z,5.50
2017-08-24T11:09:22.046Z,5.30
2017-08-24T11:11:56.277Z,5.80
2017-08-24T11:14:29.993Z,6.27
2017-08-24T11:17:04.278Z,5.13
2017-08-24T11:19:38.561Z,5.67
2017-08-24T11:22:12.701Z,5.83
2017-08-24T11:24:46.976Z,6.03
2017-08-24T11:27:21.134Z,6.03
2017-08-24T11:29:55.487Z,6.10
2017-08-24T11:32:29.420Z,5.80
2017-08-24T11:35:03.770Z,5.67
2017-08-24T11:37:38.299Z,6.20
2017-08-24T11:40:13.000Z,6.23
2017-08-24T11:42:47.331Z,6.40
2017-08-24T11:45:22.253Z,5.83
2017-08-24T11:47:56.279Z,6.30
2017-08-24T11:50:30.300Z,6.43
2017-08-24T11:53:03.791Z,6.00
2017-08-24T11:55:37.880Z,5.97
2017-08-24T11:58:12.167Z,5.80
2017-08-24T12:00:46.868Z,6.20
2017-08-24T12:03:21.382Z,6.10
2017-08-24T12:05:55.608Z,6.40
2017-08-24T12:08:29.720Z,6.60
2017-08-24T12:11:03.855Z,5.80
2017-08-24T12:13:37.936Z,6.27
2017-08-24T12:16:12.316Z,6.30
2017-08-24T12:18:46.444Z,6.33
2017-08-24T12:21:20.950Z,6.13
2017-08-24T12:23:55.287Z,6.50
2017-08-24T12:26:29.323Z,6.03
2017-08-24T12:29:03.423Z,5.83
2017-08-24T12:31:37.621Z,6.53
2017-08-24T12:34:11.912Z,6.43
2017-08-24T12:36:45.895Z,6.70
2017-08-24T12:39:20.825Z,6.07
2017-08-24T12:41:54.326Z,6.70
2017-08-24T12:44:28.310Z,6.80
2017-08-24T12:47:02.455Z,6.90
2017-08-24T12:49:36.541Z,6.80
2017-08-24T12:52:11.116Z,6.70
2017-08-24T12:54:44.965Z,6.80
2017-08-24T12:57:19.249Z,6.70
2017-08-24T12:59:53.818Z,6.10
2017-08-24T13:02:28.009Z,6.07
2017-08-24T13:05:02.071Z,7.07
2017-08-24T13:07:36.354Z,6.23
2017-08-24T13:10:10.706Z,6.10
2017-08-24T13:12:44.471Z,6.10
2017-08-24T13:15:18.602Z,6.10
2017-08-24T13:17:52.309Z,6.00
2017-08-24T13:20:27.030Z,6.90
2017-08-24T13:23:01.155Z,6.60
2017-08-24T13:25:35.492Z,6.20
2017-08-24T13:28:09.735Z,6.07
2017-08-24T13:30:44.958Z,6.30
2017-08-24T13:33:18.987Z,6.17
2017-08-24T13:35:53.456Z,6.60
2017-08-24T13:38:28.153Z,6.87
2017-08-24T13:41:02.930Z,6.40
2017-08-24T13:43:36.598Z,5.70
2017-08-24T13:46:10.813Z,6.53
2017-08-24T13:48:44.686Z,6.40
2017-08-24T13:51:18.939Z,6.10
2017-08-24T13:53:52.872Z,6.10
2017-08-24T13:56:26.692Z,6.40
2017-08-24T13:59:01.095Z,5.57
2017-08-24T14:01:35.413Z,6.07
2017-08-24T14:04:09.070Z,6.17
2017-08-24T14:06:42.866Z,6.60
2017-08-24T14:09:16.903Z,6.20
2017-08-24T14:11:51.276Z,6.43
2017-08-24T14:14:25.482Z,6.80
2017-08-24T14:16:59.837Z,6.43
2017-08-24T14:19:33.772Z,6.30
2017-08-24T14:22:07.864Z,5.87
2017-08-24T14:24:42.017Z,5.93
2017-08-24T14:27:16.209Z,5.80
2017-08-24T14:29:50.252Z,6.20
2017-08-24T14:32:24.641Z,6.50
2017-08-24T14:34:58.791Z,5.80
2017-08-24T14:37:32.907Z,5.97
2017-08-24T14:40:07.082Z,5.73
2017-08-24T14:42:41.357Z,6.00
2017-08-24T14:45:15.557Z,5.80
2017-08-24T14:47:51.569Z,6.20
2017-08-24T14:50:25.697Z,5.90
2017-08-24T14:52:59.685Z,6.17
2017-08-24T14:55:33.164Z,6.00
2017-08-24T14:58:07.528Z,5.80
2017-08-24T15:00:41.132Z,5.80
2017-08-24T15:03:15.063Z,5.27
2017-08-24T15:05:49.182Z,5.63
2017-08-24T15:08:22.674Z,5.60
2017-08-24T15:10:56.410Z,5.70
2017-08-24T15:13:29.775Z,5.43
2017-08-24T15:16:03.708Z,5.47
2017-08-24T15:18:37.944Z,5.53
2017-08-24T15:21:11.683Z,5.13
2017-08-24T15:23:45.645Z,5.63
2017-08-24T15:26:19.623Z,5.70
2017-08-24T15:28:53.833Z,6.17
2017-08-24T15:31:27.843Z,4.97
2017-08-24T15:34:02.159Z,5.70
2017-08-24T15:36:36.253Z,5.73
2017-08-24T15:39:10.457Z,5.60
2017-08-24T15:41:44.290Z,5.40
2017-08-24T15:44:18.524Z,5.53
2017-08-24T15:46:52.644Z,5.33
2017-08-24T15:49:26.894Z,5.23
2017-08-24T15:52:00.644Z,5.23
2017-08-24T15:54:35.272Z,5.30
2017-08-24T15:57:10.072Z,5.80
2017-08-24T15:59:44.268Z,5.70
2017-08-24T16:02:18.228Z,5.50
2017-08-24T16:04:52.499Z,5.97
2017-08-24T16:07:26.667Z,5.87
2017-08-24T16:10:00.711Z,6.40
2017-08-24T16:12:34.785Z,5.80
2017-08-24T16:15:08.952Z,6.20
2017-08-24T16:17:43.046Z,6.50
2017-08-24T16:20:17.208Z,8.80
2017-08-24T16:22:51.459Z,6.87
2017-08-24T16:25:25.834Z,6.30
2017-08-24T16:28:00.085Z,6.60
2017-08-24T16:30:34.276Z,6.73
2017-08-24T16:33:08.695Z,6.80
2017-08-24T16:35:42.682Z,7.07
2017-08-24T16:38:16.812Z,6.80
2017-08-24T16:40:50.773Z,7.53
2017-08-24T16:43:24.739Z,7.00
2017-08-24T16:45:58.644Z,6.90
2017-08-24T16:48:32.652Z,6.40
2017-08-24T16:51:06.966Z,6.97
2017-08-24T16:53:41.202Z,6.33
2017-08-24T16:56:15.197Z,6.70
2017-08-24T16:58:49.425Z,7.33
2017-08-24T17:01:23.683Z,6.93
2017-08-24T17:03:57.952Z,6.60
2017-08-24T17:06:32.005Z,7.17
2017-08-24T17:09:05.952Z,6.70
2017-08-24T17:11:40.180Z,6.53
2017-08-24T17:14:14.485Z,6.67
2017-08-24T17:16:48.397Z,6.67
2017-08-24T17:19:22.490Z,7.07
2017-08-24T17:21:56.443Z,7.27
2017-08-24T17:24:30.088Z,6.97
2017-08-24T17:27:03.483Z,7.30
2017-08-24T17:29:37.685Z,6.33
2017-08-24T17:32:11.846Z,6.60
2017-08-24T17:34:45.717Z,6.73
2017-08-24T17:37:19.921Z,7.43
2017-08-24T17:39:54.105Z,6.83
2017-08-24T17:42:28.068Z,6.93
2017-08-24T17:45:02.243Z,6.97
2017-08-24T17:47:36.062Z,6.40
2017-08-24T17:50:09.747Z,6.60
2017-08-24T17:52:44.093Z,7.20
2017-08-24T17:55:18.186Z,6.90
2017-08-24T17:57:52.118Z,6.60
2017-08-24T18:00:25.582Z,6.47
2017-08-24T18:03:00.032Z,7.13
2017-08-24T18:05:33.569Z,6.37
2017-08-24T18:08:07.816Z,6.90
2017-08-24T18:10:41.849Z,7.07
2017-08-24T18:13:15.387Z,7.20
2017-08-24T18:15:49.423Z,7.27
2017-08-24T18:18:23.468Z,7.63
2017-08-24T18:20:57.759Z,7.07
2017-08-24T18:23:31.760Z,7.60
2017-08-24T18:26:05.582Z,7.63
2017-08-24T18:28:39.623Z,7.53
2017-08-24T18:31:14.030Z,7.60
2017-08-24T18:33:48.086Z,7.63
2017-08-24T18:36:22.323Z,7.30
2017-08-24T18:38:55.943Z,7.90
2017-08-24T18:41:29.862Z,7.60
2017-08-24T18:44:03.894Z,6.97
2017-08-24T18:46:37.890Z,7.67
2017-08-24T18:49:11.249Z,7.67
2017-08-24T18:51:45.437Z,8.00
2017-08-24T18:54:19.710Z,7.60
2017-08-24T18:56:54.061Z,7.83
2017-08-24T18:59:28.101Z,7.40
2017-08-24T19:02:02.348Z,7.40
2017-08-24T19:04:36.046Z,7.40
2017-08-24T19:07:10.467Z,8.27
2017-08-24T19:09:44.686Z,7.23
2017-08-24T19:12:18.178Z,7.83
2017-08-24T19:14:51.887Z,8.47
2017-08-24T19:17:25.845Z,8.43
2017-08-24T19:19:59.956Z,8.07
2017-08-24T19:22:34.145Z,7.73
2017-08-24T19:25:08.337Z,7.50
2017-08-24T19:27:42.526Z,7.60
2017-08-24T19:30:16.754Z,8.00
2017-08-24T19:32:50.798Z,8.60
2017-08-24T19:35:25.351Z,7.83
2017-08-24T19:37:59.622Z,8.00
2017-08-24T19:40:33.084Z,8.10
2017-08-24T19:43:07.935Z,8.13
2017-08-24T19:45:42.306Z,7.43
2017-08-24T19:48:16.590Z,8.50
2017-08-24T19:50:50.636Z,8.30
2017-08-24T19:53:24.941Z,8.83
2017-08-24T19:55:59.376Z,7.70
2017-08-24T19:58:33.722Z,8.33
2017-08-24T20:01:07.543Z,8.43
2017-08-24T20:03:41.624Z,8.57
2017-08-24T20:06:15.778Z,8.13
2017-08-24T20:08:49.764Z,8.23
2017-08-24T20:11:23.877Z,8.20
2017-08-24T20:13:57.964Z,8.20
2017-08-24T20:16:32.021Z,8.27
2017-08-24T20:19:05.995Z,7.33
2017-08-24T20:21:40.192Z,7.43
2017-08-24T20:24:14.343Z,8.50
2017-08-24T20:26:48.788Z,8.20
2017-08-24T20:29:27.180Z,8.13
2017-08-24T20:32:02.543Z,8.03
2017-08-24T20:34:36.199Z,8.10
2017-08-24T20:37:10.169Z,8.67
2017-08-24T20:39:44.128Z,7.70
2017-08-24T20:42:18.949Z,8.47
2017-08-24T20:44:53.497Z,8.20
2017-08-24T20:47:28.185Z,8.23
2017-08-24T20:50:01.801Z,8.30
2017-08-24T20:52:35.727Z,7.73
2017-08-24T20:55:10.200Z,8.93
2017-08-24T20:57:43.837Z,8.70
2017-08-24T21:00:18.416Z,8.57
2017-08-24T21:02:52.291Z,9.13
2017-08-24T21:05:26.756Z,8.70
2017-08-24T21:08:01.140Z,8.37
2017-08-24T21:10:35.199Z,7.90
2017-08-24T21:13:08.904Z,8.07
2017-08-24T21:15:43.006Z,8.73
2017-08-24T21:18:17.183Z,8.97
2017-08-24T21:20:51.336Z,8.47
2017-08-24T21:23:25.284Z,7.97
2017-08-24T21:25:59.805Z,8.40
2017-08-24T21:28:33.769Z,8.90
2017-08-24T21:31:07.852Z,8.50
2017-08-24T21:33:42.229Z,7.90
2017-08-24T21:36:16.095Z,8.53
2017-08-24T21:38:50.662Z,8.20
2017-08-24T21:41:25.162Z,8.73
2017-08-24T21:43:58.970Z,9.17
2017-08-24T21:46:33.272Z,8.40
2017-08-24T21:49:07.258Z,8.10
2017-08-24T21:51:41.596Z,8.40
2017-08-24T21:54:15.952Z,8.80
2017-08-24T21:56:49.964Z,8.60
2017-08-24T21:59:24.102Z,8.23
2017-08-24T22:01:57.813Z,10.80
2017-08-24T22:04:31.742Z,8.27
2017-08-24T22:07:06.052Z,8.30
2017-08-24T22:09:39.784Z,8.47
2017-08-24T22:12:13.210Z,8.33
2017-08-24T22:14:47.567Z,7.67
2017-08-24T22:17:21.888Z,8.33
2017-08-24T22:19:55.901Z,8.50
2017-08-24T22:22:29.871Z,8.60
2017-08-24T22:25:04.315Z,8.57
2017-08-24T22:27:37.934Z,8.67
2017-08-24T22:30:12.299Z,8.23
2017-08-24T22:32:46.246Z,8.10
2017-08-24T22:35:20.439Z,8.00
2017-08-24T22:37:54.461Z,8.90
2017-08-24T22:40:28.465Z,8.60
2017-08-24T22:43:02.556Z,8.80
2017-08-24T22:45:38.049Z,9.40
2017-08-24T22:48:12.139Z,8.77
2017-08-24T22:50:46.125Z,8.63
2017-08-24T22:53:25.997Z,8.47
2017-08-24T22:56:16.156Z,9.30
2017-08-24T23:01:51.437Z,9.07
2017-08-24T23:04:25.212Z,9.50
2017-08-24T23:06:59.340Z,9.10
2017-08-24T23:09:33.201Z,10.10
2017-08-24T23:12:07.755Z,9.10
2017-08-24T23:14:42.406Z,8.60
2017-08-24T23:17:16.959Z,7.87
2017-08-24T23:19:50.563Z,9.23
2017-08-24T23:22:24.579Z,9.50
2017-08-24T23:24:59.202Z,9.47
2017-08-24T23:27:32.998Z,9.30
2017-08-24T23:30:06.696Z,9.20
2017-08-24T23:32:40.648Z,9.10
2017-08-24T23:35:14.704Z,8.77
2017-08-24T23:37:48.769Z,8.70
2017-08-24T23:40:23.066Z,8.93
2017-08-24T23:42:57.140Z,8.90
2017-08-24T23:45:31.300Z,9.53
2017-08-24T23:48:06.509Z,8.87
2017-08-24T23:50:40.445Z,9.70
2017-08-24T23:53:15.208Z,9.53
2017-08-24T23:55:48.901Z,8.80
2017-08-24T23:58:23.268Z,8.53
